createdAt,value
2022-10-18T00:01:11.998Z,9.31
2022-10-18T00:03:39.757Z,9.24
2022-10-18T00:06:09.357Z,9.30
2022-10-18T00:08:38.715Z,9.29
2022-10-18T00:11:07.533Z,9.28
2022-10-18T00:13:35.045Z,9.24
2022-10-18T00:16:04.450Z,9.25
2022-10-18T00:18:32.359Z,9.24
2022-10-18T00:21:20.574Z,9.36
2022-10-18T00:23:49.506Z,9.29
2022-10-18T00:26:23.249Z,9.35
2022-10-18T00:28:57.076Z,9.36
2022-10-18T00:31:24.542Z,9.39
2022-10-18T00:33:54.898Z,9.43
2022-10-18T00:36:23.066Z,9.46
2022-10-18T00:38:51.059Z,9.47
2022-10-18T00:41:24.792Z,9.52
2022-10-18T00:44:00.404Z,9.53
2022-10-18T00:46:33.569Z,9.58
2022-10-18T00:49:05.486Z,9.56
2022-10-18T00:51:41.603Z,9.57
2022-10-18T00:54:09.087Z,9.55
2022-10-18T00:56:36.899Z,9.55
2022-10-18T00:59:04.648Z,9.46
2022-10-18T01:01:32.155Z,9.50
2022-10-18T01:03:59.973Z,9.41
2022-10-18T01:06:28.981Z,9.41
2022-10-18T01:09:37.943Z,9.45
2022-10-18T01:12:20.810Z,9.38
2022-10-18T01:15:10.744Z,9.37
2022-10-18T01:17:52.324Z,9.29
2022-10-18T01:20:41.092Z,9.28
2022-10-18T01:23:23.807Z,9.25
2022-10-18T01:26:06.599Z,9.27
2022-10-18T01:28:58.704Z,9.27
2022-10-18T01:31:35.125Z,9.26
2022-10-18T01:34:08.484Z,9.23
2022-10-18T01:36:49.790Z,9.25
2022-10-18T01:39:22.823Z,9.18
2022-10-18T01:41:53.420Z,9.20
2022-10-18T01:44:27.207Z,9.18
2022-10-18T01:46:57.234Z,9.18
2022-10-18T01:49:26.166Z,9.18
2022-10-18T01:51:54.060Z,9.21
2022-10-18T01:54:33.117Z,9.25
2022-10-18T01:57:36.901Z,9.24
2022-10-18T02:00:10.525Z,9.23
2022-10-18T02:02:57.122Z,9.18
2022-10-18T02:05:48.284Z,9.26
2022-10-18T02:08:34.695Z,9.23
2022-10-18T02:11:08.421Z,9.22
2022-10-18T02:13:41.610Z,9.21
2022-10-18T02:16:36.260Z,9.30
2022-10-18T02:19:44.004Z,9.39
2022-10-18T02:22:13.519Z,9.24
2022-10-18T02:24:54.289Z,9.32
2022-10-18T02:27:22.422Z,9.24
2022-10-18T02:29:50.205Z,9.19
2022-10-18T02:32:32.374Z,9.26
2022-10-18T02:35:09.072Z,9.20
2022-10-18T02:37:40.514Z,9.16
2022-10-18T02:40:10.285Z,9.16
2022-10-18T02:42:59.463Z,9.10
2022-10-18T02:45:27.501Z,9.19
2022-10-18T02:47:55.010Z,9.18
2022-10-18T02:50:22.442Z,9.13
2022-10-18T02:52:49.900Z,9.17
2022-10-18T02:55:17.407Z,9.17
2022-10-18T02:57:44.976Z,9.21
2022-10-18T03:00:13.050Z,9.15
2022-10-18T03:02:40.529Z,9.23
2022-10-18T03:05:08.292Z,9.19
2022-10-18T03:07:35.859Z,9.15
2022-10-18T03:10:03.566Z,9.18
2022-10-18T03:12:31.077Z,9.13
2022-10-18T03:14:58.451Z,9.10
2022-10-18T03:17:26.087Z,9.15
2022-10-18T03:19:53.526Z,9.11
2022-10-18T03:22:21.043Z,9.13
2022-10-18T03:24:48.509Z,9.16
2022-10-18T03:27:15.998Z,9.13
2022-10-18T03:29:43.393Z,9.17
2022-10-18T03:32:10.895Z,9.10
2022-10-18T03:34:38.392Z,9.15
2022-10-18T03:37:05.899Z,9.15
2022-10-18T03:39:33.306Z,9.11
2022-10-18T03:42:00.780Z,9.05
2022-10-18T03:44:28.177Z,9.07
2022-10-18T03:46:55.648Z,9.04
2022-10-18T03:49:23.094Z,9.01
2022-10-18T03:51:50.548Z,8.95
2022-10-18T03:54:21.228Z,9.00
2022-10-18T03:56:48.697Z,8.97
2022-10-18T03:59:17.190Z,9.01
2022-10-18T04:01:44.599Z,8.91
2022-10-18T04:04:12.130Z,8.97
2022-10-18T04:06:39.598Z,8.95
2022-10-18T04:09:09.474Z,8.91
2022-10-18T04:11:37.939Z,8.94
2022-10-18T04:14:07.654Z,8.97
2022-10-18T04:19:03.804Z,9.01
2022-10-18T04:21:31.292Z,8.93
2022-10-18T04:23:58.658Z,8.86
2022-10-18T04:26:26.246Z,8.81
2022-10-18T04:28:56.061Z,8.83
2022-10-18T04:31:23.637Z,8.87
2022-10-18T04:33:51.054Z,8.91
2022-10-18T04:36:18.581Z,8.91
2022-10-18T04:38:46.003Z,8.87
2022-10-18T04:41:13.506Z,8.81
2022-10-18T04:43:40.932Z,8.85
2022-10-18T04:46:08.614Z,8.82
2022-10-18T04:48:36.027Z,8.97
2022-10-18T04:51:03.639Z,8.90
2022-10-18T04:53:31.367Z,8.99
2022-10-18T04:55:58.964Z,8.89
2022-10-18T04:58:26.646Z,8.89
2022-10-18T05:00:54.411Z,8.95
2022-10-18T05:03:21.932Z,9.00
2022-10-18T05:06:01.431Z,9.12
2022-10-18T05:08:30.597Z,9.22
2022-10-18T05:10:58.279Z,9.28
2022-10-18T05:13:26.098Z,9.27
2022-10-18T05:15:53.610Z,9.28
2022-10-18T05:18:21.047Z,9.24
2022-10-18T05:20:48.571Z,9.28
2022-10-18T05:23:15.964Z,9.25
2022-10-18T05:25:44.158Z,9.23
2022-10-18T05:28:34.571Z,9.26
2022-10-18T05:31:03.470Z,9.28
2022-10-18T05:33:31.838Z,9.31
2022-10-18T05:35:59.785Z,9.34
2022-10-18T05:38:27.358Z,9.37
2022-10-18T05:40:54.895Z,9.37
2022-10-18T05:43:24.623Z,9.29
2022-10-18T05:45:52.092Z,9.27
2022-10-18T05:48:19.546Z,9.21
2022-10-18T05:50:50.011Z,9.21
2022-10-18T05:53:37.461Z,9.06
2022-10-18T05:56:06.511Z,9.12
2022-10-18T05:58:34.382Z,9.17
2022-10-18T06:01:32.956Z,9.29
2022-10-18T06:13:33.954Z,9.35
2022-10-18T06:33:50.603Z,9.42
2022-10-18T06:36:27.685Z,9.33
2022-10-18T06:40:08.911Z,9.35
2022-10-18T06:43:26.473Z,9.33
2022-10-18T06:47:10.397Z,9.26
2022-10-18T06:50:14.722Z,9.20
2022-10-18T06:52:45.041Z,9.11
2022-10-18T06:55:12.498Z,9.14
2022-10-18T06:57:39.874Z,9.15
2022-10-18T07:00:08.195Z,9.19
2022-10-18T07:02:35.756Z,9.21
2022-10-18T07:05:03.529Z,9.21
2022-10-18T07:07:31.880Z,9.22
2022-10-18T07:09:59.745Z,9.24
2022-10-18T07:12:27.173Z,9.24
2022-10-18T07:14:55.297Z,9.27
2022-10-18T07:17:22.865Z,9.30
2022-10-18T07:19:50.340Z,9.36
2022-10-18T07:22:17.845Z,9.41
2022-10-18T07:24:45.283Z,9.40
2022-10-18T07:27:12.808Z,9.43
2022-10-18T07:29:41.019Z,9.36
2022-10-18T07:32:08.531Z,9.46
2022-10-18T07:34:36.056Z,9.46
2022-10-18T07:37:03.756Z,9.41
2022-10-18T07:39:31.171Z,9.38
2022-10-18T07:41:58.732Z,9.39
2022-10-18T07:44:26.188Z,9.33
2022-10-18T07:46:53.884Z,9.30
2022-10-18T07:49:21.392Z,9.31
2022-10-18T07:51:48.867Z,9.28
2022-10-18T07:54:16.443Z,9.31
2022-10-18T07:56:43.852Z,9.32
2022-10-18T07:59:11.706Z,9.33
2022-10-18T08:01:46.759Z,9.34
2022-10-18T08:04:16.572Z,9.39
2022-10-18T08:06:44.154Z,9.39
2022-10-18T08:09:11.547Z,9.34
2022-10-18T08:11:39.249Z,9.25
2022-10-18T08:14:06.662Z,9.23
2022-10-18T08:16:34.177Z,9.18
2022-10-18T08:19:01.663Z,9.16
2022-10-18T08:21:29.122Z,9.22
2022-10-18T08:23:56.591Z,9.24
2022-10-18T08:26:24.541Z,9.11
2022-10-18T08:28:54.269Z,9.13
2022-10-18T08:31:26.035Z,9.04
2022-10-18T08:33:57.199Z,9.02
2022-10-18T08:36:25.197Z,8.94
2022-10-18T08:38:52.674Z,8.87
2022-10-18T08:41:28.809Z,8.90
2022-10-18T08:44:23.382Z,8.91
2022-10-18T08:47:00.132Z,8.87
2022-10-18T08:49:44.170Z,8.88
2022-10-18T08:52:35.217Z,8.84
2022-10-18T08:55:11.447Z,8.80
2022-10-18T08:57:40.193Z,8.74
2022-10-18T09:00:25.830Z,8.88
2022-10-18T09:03:24.325Z,8.89
2022-10-18T09:05:56.415Z,9.03
2022-10-18T09:08:42.533Z,9.05
2022-10-18T09:11:27.595Z,9.09
2022-10-18T09:14:29.068Z,9.13
2022-10-18T09:17:06.045Z,9.11
2022-10-18T09:19:55.912Z,9.16
2022-10-18T09:22:50.078Z,9.21
2022-10-18T09:25:22.543Z,9.26
2022-10-18T09:27:54.753Z,9.26
2022-10-18T09:30:41.409Z,9.27
2022-10-18T09:33:24.423Z,9.42
2022-10-18T09:36:05.051Z,9.51
2022-10-18T09:38:40.921Z,9.52
2022-10-18T09:41:32.287Z,9.68
2022-10-18T09:44:13.160Z,9.73
2022-10-18T09:46:46.682Z,9.84
2022-10-18T09:49:19.304Z,9.91
2022-10-18T09:51:50.307Z,9.96
2022-10-18T09:54:32.544Z,10.04
2022-10-18T09:57:32.607Z,10.17
2022-10-18T10:00:03.772Z,10.15
2022-10-18T10:02:32.665Z,10.20
2022-10-18T10:05:00.208Z,10.23
2022-10-18T10:07:35.497Z,10.32
2022-10-18T10:10:29.359Z,10.46
2022-10-18T10:13:27.912Z,10.57
2022-10-18T10:15:57.228Z,10.67
2022-10-18T10:18:54.406Z,10.69
2022-10-18T10:21:22.422Z,10.65
2022-10-18T10:23:57.088Z,10.66
2022-10-18T10:26:38.984Z,10.79
2022-10-18T10:29:45.158Z,10.89
2022-10-18T10:32:18.827Z,10.84
2022-10-18T10:34:46.582Z,10.88
2022-10-18T10:37:37.825Z,10.98
2022-10-18T10:40:20.478Z,11.02
2022-10-18T10:43:00.014Z,11.09
2022-10-18T10:45:58.062Z,11.16
2022-10-18T10:48:31.018Z,11.21
2022-10-18T10:51:04.414Z,11.23
2022-10-18T10:53:46.248Z,11.45
2022-10-18T10:56:27.535Z,11.40
2022-10-18T10:58:58.542Z,11.48
2022-10-18T11:01:32.772Z,11.53
2022-10-18T11:04:27.335Z,11.73
2022-10-18T11:07:22.589Z,11.76
2022-10-18T11:10:01.946Z,11.95
2022-10-18T11:12:33.531Z,12.02
2022-10-18T11:15:10.646Z,12.12
2022-10-18T11:17:45.324Z,12.26
2022-10-18T11:20:22.115Z,12.28
2022-10-18T11:23:00.948Z,12.34
2022-10-18T11:26:03.435Z,12.34
2022-10-18T11:28:57.709Z,12.41
2022-10-18T11:31:35.907Z,12.40
2022-10-18T11:34:31.608Z,12.44
2022-10-18T11:37:27.085Z,12.43
2022-10-18T11:40:13.742Z,12.48
2022-10-18T11:43:13.216Z,12.57
2022-10-18T11:46:22.163Z,12.63
2022-10-18T11:48:49.625Z,12.59
2022-10-18T11:51:34.066Z,12.66
2022-10-18T11:54:24.887Z,12.74
2022-10-18T11:57:18.226Z,12.76
2022-10-18T11:59:48.607Z,12.79
2022-10-18T12:02:37.183Z,12.87
2022-10-18T12:08:02.832Z,12.89
2022-10-18T12:10:52.792Z,12.94
2022-10-18T12:13:57.793Z,12.98
2022-10-18T12:16:50.354Z,12.98
2022-10-18T12:19:26.432Z,13.03
2022-10-18T12:22:21.945Z,13.08
2022-10-18T12:24:49.448Z,13.07
2022-10-18T12:27:17.670Z,13.13
2022-10-18T12:29:46.677Z,13.16
2022-10-18T12:32:22.729Z,13.14
2022-10-18T12:34:52.651Z,13.14
2022-10-18T12:37:35.559Z,13.27
2022-10-18T12:40:14.385Z,13.22
2022-10-18T12:42:47.119Z,13.22
2022-10-18T12:45:27.974Z,13.27
2022-10-18T12:47:59.980Z,13.25
2022-10-18T12:50:27.408Z,13.28
2022-10-18T12:53:25.487Z,13.31
2022-10-18T12:55:54.059Z,13.34
2022-10-18T12:58:21.935Z,13.35
2022-10-18T13:00:49.380Z,13.36
2022-10-18T13:03:17.429Z,13.32
2022-10-18T13:05:56.077Z,13.38
2022-10-18T13:08:38.095Z,13.40
2022-10-18T13:11:08.276Z,13.39
2022-10-18T13:14:06.910Z,13.43
2022-10-18T13:16:56.351Z,13.44
2022-10-18T13:20:07.668Z,13.48
2022-10-18T13:22:56.538Z,13.45
2022-10-18T13:25:49.870Z,13.38
2022-10-18T13:28:36.157Z,13.48
2022-10-18T13:31:27.264Z,13.48
2022-10-18T13:33:54.770Z,13.42
2022-10-18T13:36:25.273Z,13.42
2022-10-18T13:38:58.281Z,13.43
2022-10-18T13:41:34.255Z,13.45
2022-10-18T13:44:23.965Z,13.46
2022-10-18T13:46:51.642Z,13.45
2022-10-18T13:49:43.998Z,13.52
2022-10-18T13:52:17.198Z,13.45
2022-10-18T13:54:44.726Z,13.42
2022-10-18T13:57:41.235Z,13.45
2022-10-18T14:00:17.596Z,13.41
2022-10-18T14:03:44.084Z,13.48
2022-10-18T14:06:25.470Z,13.47
2022-10-18T14:09:06.189Z,13.40
2022-10-18T14:11:47.543Z,13.37
2022-10-18T14:14:43.600Z,13.43
2022-10-18T14:17:15.415Z,13.31
2022-10-18T14:19:53.947Z,13.25
2022-10-18T14:22:25.371Z,13.15
2022-10-18T14:24:58.331Z,13.10
2022-10-18T14:27:34.434Z,13.04
2022-10-18T14:30:15.626Z,12.99
2022-10-18T14:32:48.828Z,12.98
2022-10-18T14:35:32.510Z,12.94
2022-10-18T14:38:02.540Z,12.90
2022-10-18T14:40:31.706Z,12.90
2022-10-18T14:43:04.049Z,12.89
2022-10-18T14:45:31.648Z,12.87
2022-10-18T14:48:25.297Z,12.90
2022-10-18T14:51:00.586Z,12.78
2022-10-18T14:53:36.052Z,12.80
2022-10-18T14:56:07.473Z,12.85
2022-10-18T14:58:41.648Z,12.88
2022-10-18T15:01:20.065Z,12.90
2022-10-18T15:03:48.471Z,12.84
2022-10-18T15:06:19.962Z,12.82
2022-10-18T15:08:54.549Z,12.80
2022-10-18T15:11:25.670Z,12.71
2022-10-18T15:13:58.042Z,12.73
2022-10-18T15:16:28.346Z,12.74
2022-10-18T15:19:07.212Z,12.74
2022-10-18T15:21:36.187Z,12.77
2022-10-18T15:24:34.706Z,12.83
2022-10-18T15:27:29.882Z,12.83
2022-10-18T15:30:33.022Z,12.86
2022-10-18T15:33:27.522Z,12.76
2022-10-18T15:39:31.297Z,12.81
2022-10-18T15:42:01.553Z,12.81
2022-10-18T15:44:48.513Z,12.83
2022-10-18T15:47:23.068Z,12.79
2022-10-18T15:49:58.504Z,12.82
2022-10-18T15:52:42.761Z,12.89
2022-10-18T15:55:31.731Z,12.92
2022-10-18T15:58:32.089Z,12.96
2022-10-18T16:01:01.402Z,12.87
2022-10-18T16:03:29.112Z,12.87
2022-10-18T16:06:00.711Z,12.82
2022-10-18T16:08:32.571Z,12.81
2022-10-18T16:11:00.317Z,12.81
2022-10-18T16:13:28.282Z,12.80
2022-10-18T16:15:59.721Z,12.80
2022-10-18T16:18:27.947Z,12.74
2022-10-18T16:20:55.943Z,12.78
2022-10-18T16:23:26.164Z,12.73
2022-10-18T16:25:53.732Z,12.73
2022-10-18T16:28:23.939Z,12.72
2022-10-18T16:30:57.778Z,12.71
2022-10-18T16:33:25.543Z,12.73
2022-10-18T16:35:54.207Z,12.71
2022-10-18T16:38:24.400Z,12.69
2022-10-18T16:40:52.371Z,12.62
2022-10-18T16:43:19.770Z,12.55
2022-10-18T16:45:47.946Z,12.52
2022-10-18T16:48:20.969Z,12.47
2022-10-18T16:50:49.305Z,12.44
2022-10-18T16:53:16.831Z,12.38
2022-10-18T16:55:44.265Z,12.32
2022-10-18T16:58:18.141Z,12.24
2022-10-18T17:00:47.081Z,12.26
2022-10-18T17:03:14.954Z,12.20
2022-10-18T17:05:43.133Z,12.12
2022-10-18T17:08:20.734Z,12.11
2022-10-18T17:10:50.038Z,11.98
2022-10-18T17:13:17.476Z,11.90
2022-10-18T17:15:45.630Z,11.83
2022-10-18T17:18:19.461Z,11.84
2022-10-18T17:20:47.083Z,11.80
2022-10-18T17:23:14.774Z,11.83
2022-10-18T17:25:57.491Z,11.81
2022-10-18T17:28:32.410Z,11.82
2022-10-18T17:30:59.855Z,11.81
2022-10-18T17:33:27.320Z,11.77
2022-10-18T17:35:54.718Z,11.70
2022-10-18T17:38:22.202Z,11.67
2022-10-18T17:40:49.694Z,11.62
2022-10-18T17:43:17.196Z,11.59
2022-10-18T17:45:55.244Z,11.69
2022-10-18T17:48:24.727Z,11.64
2022-10-18T17:50:52.206Z,11.61
2022-10-18T17:53:23.019Z,11.55
2022-10-18T17:55:50.795Z,11.55
2022-10-18T17:58:18.196Z,11.48
2022-10-18T18:00:45.700Z,11.48
2022-10-18T18:03:13.631Z,11.40
2022-10-18T18:05:41.432Z,11.44
2022-10-18T18:08:08.982Z,11.40
2022-10-18T18:10:36.583Z,11.41
2022-10-18T18:13:04.069Z,11.40
2022-10-18T18:15:32.069Z,11.37
2022-10-18T18:17:59.704Z,11.33
2022-10-18T18:20:27.212Z,11.29
2022-10-18T18:22:54.714Z,11.24
2022-10-18T18:25:22.146Z,11.15
2022-10-18T18:27:49.591Z,11.07
2022-10-18T18:30:18.087Z,11.02
2022-10-18T18:32:45.622Z,10.95
2022-10-18T18:35:13.131Z,10.89
2022-10-18T18:37:40.552Z,10.81
2022-10-18T18:40:08.697Z,10.75
2022-10-18T18:42:36.349Z,10.80
2022-10-18T18:45:04.302Z,10.80
2022-10-18T18:47:35.457Z,10.75
2022-10-18T18:50:03.100Z,10.80
2022-10-18T18:52:31.191Z,10.75
2022-10-18T18:54:58.855Z,10.72
2022-10-18T18:57:26.268Z,10.69
2022-10-18T18:59:53.702Z,10.65
2022-10-18T19:02:21.309Z,10.54
2022-10-18T19:04:48.902Z,10.46
2022-10-18T19:07:16.570Z,10.51
2022-10-18T19:09:44.910Z,10.46
2022-10-18T19:12:12.777Z,10.50
2022-10-18T19:14:41.236Z,10.48
2022-10-18T19:17:09.564Z,10.51
2022-10-18T19:19:39.538Z,10.45
2022-10-18T19:22:10.288Z,10.42
2022-10-18T19:24:37.849Z,10.44
2022-10-18T19:27:12.581Z,10.43
2022-10-18T19:29:41.235Z,10.37
2022-10-18T19:32:12.280Z,10.34
2022-10-18T19:34:40.602Z,10.29
2022-10-18T19:37:09.570Z,10.38
2022-10-18T19:39:37.523Z,10.42
2022-10-18T19:42:09.102Z,10.42
2022-10-18T19:44:37.376Z,10.52
2022-10-18T19:47:07.041Z,10.57
2022-10-18T19:49:34.540Z,10.60
2022-10-18T19:52:02.096Z,10.70
2022-10-18T19:54:29.802Z,10.70
2022-10-18T19:56:57.239Z,10.77
2022-10-18T19:59:24.943Z,10.83
2022-10-18T20:01:52.451Z,10.79
2022-10-18T20:04:19.865Z,10.81
2022-10-18T20:06:47.740Z,10.79
2022-10-18T20:09:19.313Z,10.81
2022-10-18T20:11:48.268Z,10.77
2022-10-18T20:14:15.910Z,10.80
2022-10-18T20:16:43.395Z,10.79
2022-10-18T20:19:11.789Z,10.78
2022-10-18T20:21:40.052Z,10.77
2022-10-18T20:24:09.439Z,10.74
2022-10-18T20:26:36.980Z,10.77
2022-10-18T20:29:05.022Z,10.80
2022-10-18T20:31:35.727Z,10.76
2022-10-18T20:34:06.838Z,10.74
2022-10-18T20:36:35.015Z,10.69
2022-10-18T20:39:03.095Z,10.63
2022-10-18T20:41:38.144Z,10.61
2022-10-18T20:44:09.833Z,10.51
2022-10-18T20:46:38.237Z,10.52
2022-10-18T20:49:07.576Z,10.52
2022-10-18T20:51:35.815Z,10.53
2022-10-18T20:56:35.449Z,10.55
2022-10-18T20:59:06.226Z,10.57
2022-10-18T21:01:35.775Z,10.59
2022-10-18T21:04:06.413Z,10.58
2022-10-18T21:06:37.449Z,10.70
2022-10-18T21:09:08.175Z,10.73
2022-10-18T21:11:38.442Z,10.74
2022-10-18T21:14:07.402Z,10.71
2022-10-18T21:16:36.018Z,10.75
2022-10-18T21:19:08.743Z,10.74
2022-10-18T21:21:36.833Z,10.71
2022-10-18T21:24:07.138Z,10.69
2022-10-18T21:26:36.451Z,10.73
2022-10-18T21:29:04.761Z,10.73
2022-10-18T21:31:39.136Z,10.74
2022-10-18T21:34:12.864Z,10.72
2022-10-18T21:36:42.711Z,10.73
2022-10-18T21:39:15.995Z,10.72
2022-10-18T21:41:44.251Z,10.73
2022-10-18T21:44:12.199Z,10.71
2022-10-18T21:46:40.741Z,10.70
2022-10-18T21:49:08.171Z,10.71
2022-10-18T21:51:36.154Z,10.66
2022-10-18T21:54:04.025Z,10.72
2022-10-18T21:56:35.991Z,10.74
2022-10-18T21:59:04.290Z,10.66
2022-10-18T22:01:36.838Z,10.65
2022-10-18T22:04:07.097Z,10.71
2022-10-18T22:09:08.793Z,10.77
2022-10-18T22:11:40.853Z,10.75
2022-10-18T22:14:08.466Z,10.71
2022-10-18T22:16:36.174Z,10.73
2022-10-18T22:19:05.592Z,10.69
2022-10-18T22:21:33.912Z,10.74
2022-10-18T22:24:05.642Z,10.73
2022-10-18T22:26:36.327Z,10.70
2022-10-18T22:29:15.604Z,10.78
2022-10-18T22:31:46.249Z,10.75
2022-10-18T22:34:17.271Z,10.71
2022-10-18T22:36:45.262Z,10.73
2022-10-18T22:39:14.595Z,10.79
2022-10-18T22:41:42.651Z,10.80
2022-10-18T22:44:12.945Z,10.80
2022-10-18T22:46:41.794Z,10.78
2022-10-18T22:49:09.201Z,10.84
2022-10-18T22:51:36.664Z,10.84
2022-10-18T22:54:04.205Z,10.79
2022-10-18T22:56:31.600Z,10.71
2022-10-18T22:58:59.055Z,10.78
2022-10-18T23:01:26.525Z,10.78
2022-10-18T23:03:55.667Z,10.77
2022-10-18T23:06:25.841Z,10.78
2022-10-18T23:08:55.179Z,10.69
2022-10-18T23:11:23.704Z,10.75
2022-10-18T23:13:51.968Z,10.72
2022-10-18T23:16:20.550Z,10.74
2022-10-18T23:18:52.695Z,10.73
2022-10-18T23:21:21.565Z,10.73
2022-10-18T23:23:49.011Z,10.74
2022-10-18T23:26:19.682Z,10.73
2022-10-18T23:28:49.872Z,10.73
2022-10-18T23:31:23.164Z,10.71
2022-10-18T23:33:52.846Z,10.70
2022-10-18T23:36:21.480Z,10.74
2022-10-18T23:38:49.242Z,10.75
2022-10-18T23:41:17.676Z,10.72
2022-10-18T23:43:45.873Z,10.72
2022-10-18T23:46:14.618Z,10.66
2022-10-18T23:48:42.576Z,10.73
2022-10-18T23:51:10.858Z,10.66
2022-10-18T23:53:38.715Z,10.72
2022-10-18T23:56:16.336Z,10.78
2022-10-18T23:58:45.211Z,10.70
